sensor_id;sensor_type;location;lat;lon;timestamp;temperature;humidity
11035;DHT22;5571;48.110;-1.706;2022-11-12T00:01:21;9.80;99.90
11035;DHT22;5571;48.110;-1.706;2022-11-12T00:03:47;9.80;99.90
11035;DHT22;5571;48.110;-1.706;2022-11-12T00:06:12;9.90;99.90
11035;DHT22;5571;48.110;-1.706;2022-11-12T00:08:38;9.80;99.90
11035;DHT22;5571;48.110;-1.706;2022-11-12T00:11:04;9.80;99.90
11035;DHT22;5571;48.110;-1.706;2022-11-12T00:13:30;9.80;99.90
11035;DHT22;5571;48.110;-1.706;2022-11-12T00:15:56;9.80;99.90
11035;DHT22;5571;48.110;-1.706;2022-11-12T00:18:21;9.80;99.90
11035;DHT22;5571;48.110;-1.706;2022-11-12T00:20:47;9.80;99.90
11035;DHT22;5571;48.110;-1.706;2022-11-12T00:23:13;9.80;99.90
11035;DHT22;5571;48.110;-1.706;2022-11-12T00:25:38;9.80;99.90
11035;DHT22;5571;48.110;-1.706;2022-11-12T00:28:06;9.80;99.90
11035;DHT22;5571;48.110;-1.706;2022-11-12T00:30:32;9.80;99.90
11035;DHT22;5571;48.110;-1.706;2022-11-12T00:33:01;9.70;99.90
11035;DHT22;5571;48.110;-1.706;2022-11-12T00:35:27;9.70;99.90
11035;DHT22;5571;48.110;-1.706;2022-11-12T00:37:54;9.70;99.90
11035;DHT22;5571;48.110;-1.706;2022-11-12T00:40:20;9.70;99.90
11035;DHT22;5571;48.110;-1.706;2022-11-12T00:42:45;9.70;99.90
11035;DHT22;5571;48.110;-1.706;2022-11-12T00:45:11;9.60;99.90
11035;DHT22;5571;48.110;-1.706;2022-11-12T00:47:36;9.60;99.90
11035;DHT22;5571;48.110;-1.706;2022-11-12T00:50:02;9.60;99.90
11035;DHT22;5571;48.110;-1.706;2022-11-12T00:52:28;9.60;99.90
11035;DHT22;5571;48.110;-1.706;2022-11-12T00:54:54;9.60;99.90
11035;DHT22;5571;48.110;-1.706;2022-11-12T00:57:19;9.60;99.90
11035;DHT22;5571;48.110;-1.706;2022-11-12T00:59:45;9.60;99.90
11035;DHT22;5571;48.110;-1.706;2022-11-12T01:02:10;9.60;99.90
11035;DHT22;5571;48.110;-1.706;2022-11-12T01:04:36;9.60;99.90
11035;DHT22;5571;48.110;-1.706;2022-11-12T01:07:02;9.60;99.90
11035;DHT22;5571;48.110;-1.706;2022-11-12T01:09:27;9.60;99.90
11035;DHT22;5571;48.110;-1.706;2022-11-12T01:11:53;9.60;99.90
11035;DHT22;5571;48.110;-1.706;2022-11-12T01:14:18;9.60;99.90
11035;DHT22;5571;48.110;-1.706;2022-11-12T01:16:44;9.60;99.90
11035;DHT22;5571;48.110;-1.706;2022-11-12T01:19:11;9.60;99.90
11035;DHT22;5571;48.110;-1.706;2022-11-12T01:21:40;9.60;99.90
11035;DHT22;5571;48.110;-1.706;2022-11-12T01:24:07;9.60;99.90
11035;DHT22;5571;48.110;-1.706;2022-11-12T01:26:33;9.60;99.90
11035;DHT22;5571;48.110;-1.706;2022-11-12T01:28:58;9.60;99.90
11035;DHT22;5571;48.110;-1.706;2022-11-12T01:31:26;9.60;99.90
11035;DHT22;5571;48.110;-1.706;2022-11-12T01:33:55;9.60;99.90
11035;DHT22;5571;48.110;-1.706;2022-11-12T01:36:21;9.60;99.90
11035;DHT22;5571;48.110;-1.706;2022-11-12T01:38:48;9.60;99.90
11035;DHT22;5571;48.110;-1.706;2022-11-12T01:41:18;9.60;99.90
11035;DHT22;5571;48.110;-1.706;2022-11-12T01:43:44;9.60;99.90
11035;DHT22;5571;48.110;-1.706;2022-11-12T01:46:24;9.60;99.90
11035;DHT22;5571;48.110;-1.706;2022-11-12T01:48:57;9.60;99.90
11035;DHT22;5571;48.110;-1.706;2022-11-12T01:51:27;9.60;99.90
11035;DHT22;5571;48.110;-1.706;2022-11-12T01:53:58;9.60;99.90
11035;DHT22;5571;48.110;-1.706;2022-11-12T01:56:28;9.60;99.90
11035;DHT22;5571;48.110;-1.706;2022-11-12T01:59:03;9.60;99.90
11035;DHT22;5571;48.110;-1.706;2022-11-12T02:01:31;9.60;99.90
11035;DHT22;5571;48.110;-1.706;2022-11-12T02:03:57;9.60;99.90
11035;DHT22;5571;48.110;-1.706;2022-11-12T02:06:23;9.60;99.90
11035;DHT22;5571;48.110;-1.706;2022-11-12T02:08:49;9.60;99.90
11035;DHT22;5571;48.110;-1.706;2022-11-12T02:11:18;9.60;99.90
11035;DHT22;5571;48.110;-1.706;2022-11-12T02:13:45;9.60;99.90
11035;DHT22;5571;48.110;-1.706;2022-11-12T02:16:37;9.60;99.90
11035;DHT22;5571;48.110;-1.706;2022-11-12T02:19:05;9.60;99.90
11035;DHT22;5571;48.110;-1.706;2022-11-12T02:21:31;9.60;99.90
11035;DHT22;5571;48.110;-1.706;2022-11-12T02:24:03;9.60;99.90
11035;DHT22;5571;48.110;-1.706;2022-11-12T02:26:34;9.60;99.90
11035;DHT22;5571;48.110;-1.706;2022-11-12T02:29:01;9.60;99.90
11035;DHT22;5571;48.110;-1.706;2022-11-12T02:31:27;9.60;99.90
11035;DHT22;5571;48.110;-1.706;2022-11-12T02:33:53;9.60;99.90
11035;DHT22;5571;48.110;-1.706;2022-11-12T02:36:19;9.60;99.90
11035;DHT22;5571;48.110;-1.706;2022-11-12T02:38:44;9.60;99.90
11035;DHT22;5571;48.110;-1.706;2022-11-12T02:41:10;9.60;99.90
11035;DHT22;5571;48.110;-1.706;2022-11-12T02:43:35;9.60;99.90
11035;DHT22;5571;48.110;-1.706;2022-11-12T02:46:01;9.60;99.90
11035;DHT22;5571;48.110;-1.706;2022-11-12T02:48:27;9.70;99.90
11035;DHT22;5571;48.110;-1.706;2022-11-12T02:50:52;9.60;99.90
11035;DHT22;5571;48.110;-1.706;2022-11-12T02:53:18;9.70;99.90
11035;DHT22;5571;48.110;-1.706;2022-11-12T02:55:44;9.70;99.90
11035;DHT22;5571;48.110;-1.706;2022-11-12T02:58:09;9.70;99.90
11035;DHT22;5571;48.110;-1.706;2022-11-12T03:00:35;9.70;99.90
11035;DHT22;5571;48.110;-1.706;2022-11-12T03:03:00;9.70;99.90
11035;DHT22;5571;48.110;-1.706;2022-11-12T03:05:31;9.70;99.90
11035;DHT22;5571;48.110;-1.706;2022-11-12T03:07:59;9.70;99.90
11035;DHT22;5571;48.110;-1.706;2022-11-12T03:10:26;9.70;99.90
11035;DHT22;5571;48.110;-1.706;2022-11-12T03:12:52;9.70;99.90
11035;DHT22;5571;48.110;-1.706;2022-11-12T03:15:18;9.70;99.90
11035;DHT22;5571;48.110;-1.706;2022-11-12T03:17:44;9.70;99.90
11035;DHT22;5571;48.110;-1.706;2022-11-12T03:20:11;9.70;99.90
11035;DHT22;5571;48.110;-1.706;2022-11-12T03:22:37;9.70;99.90
11035;DHT22;5571;48.110;-1.706;2022-11-12T03:25:04;9.70;99.90
11035;DHT22;5571;48.110;-1.706;2022-11-12T03:27:30;9.70;99.90
11035;DHT22;5571;48.110;-1.706;2022-11-12T03:29:56;9.70;99.90
11035;DHT22;5571;48.110;-1.706;2022-11-12T03:32:21;9.70;99.90
11035;DHT22;5571;48.110;-1.706;2022-11-12T03:34:47;9.70;99.90
11035;DHT22;5571;48.110;-1.706;2022-11-12T03:37:13;9.70;99.90
11035;DHT22;5571;48.110;-1.706;2022-11-12T03:39:38;9.70;99.90
11035;DHT22;5571;48.110;-1.706;2022-11-12T03:42:04;9.70;99.90
11035;DHT22;5571;48.110;-1.706;2022-11-12T03:44:30;9.70;99.90
11035;DHT22;5571;48.110;-1.706;2022-11-12T03:46:55;9.70;99.90
11035;DHT22;5571;48.110;-1.706;2022-11-12T03:49:21;9.70;99.90
11035;DHT22;5571;48.110;-1.706;2022-11-12T03:51:47;9.70;99.90
11035;DHT22;5571;48.110;-1.706;2022-11-12T03:54:12;9.70;99.90
11035;DHT22;5571;48.110;-1.706;2022-11-12T03:56:38;9.70;99.90
11035;DHT22;5571;48.110;-1.706;2022-11-12T03:59:04;9.70;99.90
11035;DHT22;5571;48.110;-1.706;2022-11-12T04:01:30;9.70;99.90
11035;DHT22;5571;48.110;-1.706;2022-11-12T04:03:56;9.70;99.90
11035;DHT22;5571;48.110;-1.706;2022-11-12T04:06:21;9.70;99.90
11035;DHT22;5571;48.110;-1.706;2022-11-12T04:09:06;9.60;99.90
11035;DHT22;5571;48.110;-1.706;2022-11-12T04:11:31;9.70;99.90
11035;DHT22;5571;48.110;-1.706;2022-11-12T04:13:57;9.70;99.90
11035;DHT22;5571;48.110;-1.706;2022-11-12T04:16:23;9.60;99.90
11035;DHT22;5571;48.110;-1.706;2022-11-12T04:19:11;9.60;99.90
11035;DHT22;5571;48.110;-1.706;2022-11-12T04:22:06;9.60;99.90
11035;DHT22;5571;48.110;-1.706;2022-11-12T04:27:22;9.70;99.90
11035;DHT22;5571;48.110;-1.706;2022-11-12T04:29:49;9.60;99.90
11035;DHT22;5571;48.110;-1.706;2022-11-12T04:32:35;9.60;99.90
11035;DHT22;5571;48.110;-1.706;2022-11-12T04:35:02;9.60;99.90
11035;DHT22;5571;48.110;-1.706;2022-11-12T04:37:30;9.60;99.90
11035;DHT22;5571;48.110;-1.706;2022-11-12T04:40:22;9.70;99.90
11035;DHT22;5571;48.110;-1.706;2022-11-12T04:43:09;9.60;99.90
11035;DHT22;5571;48.110;-1.706;2022-11-12T04:45:54;9.60;99.90
11035;DHT22;5571;48.110;-1.706;2022-11-12T04:48:21;9.60;99.90
11035;DHT22;5571;48.110;-1.706;2022-11-12T04:50:52;9.60;99.90
11035;DHT22;5571;48.110;-1.706;2022-11-12T04:53:18;9.60;99.90
11035;DHT22;5571;48.110;-1.706;2022-11-12T04:55:44;9.60;99.90
11035;DHT22;5571;48.110;-1.706;2022-11-12T04:58:09;9.60;99.90
11035;DHT22;5571;48.110;-1.706;2022-11-12T05:00:35;9.60;99.90
11035;DHT22;5571;48.110;-1.706;2022-11-12T05:03:01;9.60;99.90
11035;DHT22;5571;48.110;-1.706;2022-11-12T05:05:26;9.70;99.90
11035;DHT22;5571;48.110;-1.706;2022-11-12T05:07:52;9.70;99.90
11035;DHT22;5571;48.110;-1.706;2022-11-12T05:10:17;9.60;99.90
11035;DHT22;5571;48.110;-1.706;2022-11-12T05:12:43;9.60;99.90
11035;DHT22;5571;48.110;-1.706;2022-11-12T05:15:09;9.60;99.90
11035;DHT22;5571;48.110;-1.706;2022-11-12T05:17:40;9.60;99.90
11035;DHT22;5571;48.110;-1.706;2022-11-12T05:20:06;9.60;99.90
11035;DHT22;5571;48.110;-1.706;2022-11-12T05:22:32;9.60;99.90
11035;DHT22;5571;48.110;-1.706;2022-11-12T05:24:58;9.60;99.90
11035;DHT22;5571;48.110;-1.706;2022-11-12T05:27:24;9.60;99.90
11035;DHT22;5571;48.110;-1.706;2022-11-12T05:29:50;9.60;99.90
11035;DHT22;5571;48.110;-1.706;2022-11-12T05:32:16;9.60;99.90
11035;DHT22;5571;48.110;-1.706;2022-11-12T05:34:42;9.60;99.90
11035;DHT22;5571;48.110;-1.706;2022-11-12T05:37:10;9.60;99.90
11035;DHT22;5571;48.110;-1.706;2022-11-12T05:39:36;9.70;99.90
11035;DHT22;5571;48.110;-1.706;2022-11-12T05:42:01;9.70;99.90
11035;DHT22;5571;48.110;-1.706;2022-11-12T05:44:27;9.70;99.90
11035;DHT22;5571;48.110;-1.706;2022-11-12T05:46:53;9.70;99.90
11035;DHT22;5571;48.110;-1.706;2022-11-12T05:49:19;9.70;99.90
11035;DHT22;5571;48.110;-1.706;2022-11-12T05:51:44;9.70;99.90
11035;DHT22;5571;48.110;-1.706;2022-11-12T05:54:10;9.70;99.90
11035;DHT22;5571;48.110;-1.706;2022-11-12T05:56:37;9.70;99.90
11035;DHT22;5571;48.110;-1.706;2022-11-12T05:59:04;9.70;99.90
11035;DHT22;5571;48.110;-1.706;2022-11-12T06:01:31;9.70;99.90
11035;DHT22;5571;48.110;-1.706;2022-11-12T06:03:56;9.70;99.90
11035;DHT22;5571;48.110;-1.706;2022-11-12T06:06:22;9.70;99.90
11035;DHT22;5571;48.110;-1.706;2022-11-12T06:08:48;9.60;99.90
11035;DHT22;5571;48.110;-1.706;2022-11-12T06:11:14;9.70;99.90
11035;DHT22;5571;48.110;-1.706;2022-11-12T06:13:39;9.70;99.90
11035;DHT22;5571;48.110;-1.706;2022-11-12T06:16:05;9.60;99.90
11035;DHT22;5571;48.110;-1.706;2022-11-12T06:18:31;9.70;99.90
11035;DHT22;5571;48.110;-1.706;2022-11-12T06:21:04;9.60;99.90
11035;DHT22;5571;48.110;-1.706;2022-11-12T06:23:48;9.70;99.90
11035;DHT22;5571;48.110;-1.706;2022-11-12T06:26:14;9.60;99.90
11035;DHT22;5571;48.110;-1.706;2022-11-12T06:28:39;9.60;99.90
11035;DHT22;5571;48.110;-1.706;2022-11-12T06:31:05;9.60;99.90
11035;DHT22;5571;48.110;-1.706;2022-11-12T06:33:30;9.60;99.90
11035;DHT22;5571;48.110;-1.706;2022-11-12T06:36:02;9.60;99.90
11035;DHT22;5571;48.110;-1.706;2022-11-12T06:38:29;9.60;99.90
11035;DHT22;5571;48.110;-1.706;2022-11-12T06:40:55;9.60;99.90
11035;DHT22;5571;48.110;-1.706;2022-11-12T06:43:20;9.60;99.90
11035;DHT22;5571;48.110;-1.706;2022-11-12T06:45:46;9.60;99.90
11035;DHT22;5571;48.110;-1.706;2022-11-12T06:48:12;9.60;99.90
11035;DHT22;5571;48.110;-1.706;2022-11-12T06:50:37;9.60;99.90
11035;DHT22;5571;48.110;-1.706;2022-11-12T06:53:03;9.60;99.90
11035;DHT22;5571;48.110;-1.706;2022-11-12T06:55:28;9.60;99.90
11035;DHT22;5571;48.110;-1.706;2022-11-12T06:57:54;9.60;99.90
11035;DHT22;5571;48.110;-1.706;2022-11-12T07:00:20;9.60;99.90
11035;DHT22;5571;48.110;-1.706;2022-11-12T07:02:46;9.60;99.90
11035;DHT22;5571;48.110;-1.706;2022-11-12T07:05:11;9.60;99.90
11035;DHT22;5571;48.110;-1.706;2022-11-12T07:07:37;9.50;99.90
11035;DHT22;5571;48.110;-1.706;2022-11-12T07:10:03;9.60;99.90
11035;DHT22;5571;48.110;-1.706;2022-11-12T07:12:29;9.50;99.90
11035;DHT22;5571;48.110;-1.706;2022-11-12T07:14:54;9.50;99.90
11035;DHT22;5571;48.110;-1.706;2022-11-12T07:17:20;9.50;99.90
11035;DHT22;5571;48.110;-1.706;2022-11-12T07:19:46;9.40;99.90
11035;DHT22;5571;48.110;-1.706;2022-11-12T07:22:11;9.40;99.90
11035;DHT22;5571;48.110;-1.706;2022-11-12T07:24:37;9.50;99.90
11035;DHT22;5571;48.110;-1.706;2022-11-12T07:27:03;9.50;99.90
11035;DHT22;5571;48.110;-1.706;2022-11-12T07:29:28;9.50;99.90
11035;DHT22;5571;48.110;-1.706;2022-11-12T07:31:54;9.50;99.90
11035;DHT22;5571;48.110;-1.706;2022-11-12T07:34:19;9.50;99.90
11035;DHT22;5571;48.110;-1.706;2022-11-12T07:36:45;9.50;99.90
11035;DHT22;5571;48.110;-1.706;2022-11-12T07:39:11;9.50;99.90
11035;DHT22;5571;48.110;-1.706;2022-11-12T07:41:37;9.50;99.90
11035;DHT22;5571;48.110;-1.706;2022-11-12T07:44:03;9.60;99.90
11035;DHT22;5571;48.110;-1.706;2022-11-12T07:46:29;9.60;99.90
11035;DHT22;5571;48.110;-1.706;2022-11-12T07:48:54;9.60;99.90
11035;DHT22;5571;48.110;-1.706;2022-11-12T07:51:25;9.60;99.90
11035;DHT22;5571;48.110;-1.706;2022-11-12T07:53:53;9.70;99.90
11035;DHT22;5571;48.110;-1.706;2022-11-12T07:56:21;9.70;99.90
11035;DHT22;5571;48.110;-1.706;2022-11-12T07:58:47;9.70;99.90
11035;DHT22;5571;48.110;-1.706;2022-11-12T08:01:38;9.70;99.90
11035;DHT22;5571;48.110;-1.706;2022-11-12T08:04:07;9.80;99.90
11035;DHT22;5571;48.110;-1.706;2022-11-12T08:06:34;9.80;99.90
11035;DHT22;5571;48.110;-1.706;2022-11-12T08:09:02;9.80;99.90
11035;DHT22;5571;48.110;-1.706;2022-11-12T08:11:27;9.80;99.90
11035;DHT22;5571;48.110;-1.706;2022-11-12T08:13:53;9.90;99.90
11035;DHT22;5571;48.110;-1.706;2022-11-12T08:16:19;9.90;99.90
11035;DHT22;5571;48.110;-1.706;2022-11-12T08:18:45;9.90;99.90
11035;DHT22;5571;48.110;-1.706;2022-11-12T08:21:13;9.90;99.90
11035;DHT22;5571;48.110;-1.706;2022-11-12T08:23:39;10.00;99.90
11035;DHT22;5571;48.110;-1.706;2022-11-12T08:26:07;10.00;99.90
11035;DHT22;5571;48.110;-1.706;2022-11-12T08:28:34;10.10;99.90
11035;DHT22;5571;48.110;-1.706;2022-11-12T08:31:16;10.10;99.90
11035;DHT22;5571;48.110;-1.706;2022-11-12T08:33:42;10.10;99.90
11035;DHT22;5571;48.110;-1.706;2022-11-12T08:36:11;10.20;99.90
11035;DHT22;5571;48.110;-1.706;2022-11-12T08:38:37;10.20;99.90
11035;DHT22;5571;48.110;-1.706;2022-11-12T08:41:06;10.30;99.90
11035;DHT22;5571;48.110;-1.706;2022-11-12T08:43:32;10.40;99.90
11035;DHT22;5571;48.110;-1.706;2022-11-12T08:45:59;10.50;99.90
11035;DHT22;5571;48.110;-1.706;2022-11-12T08:48:25;10.60;99.90
11035;DHT22;5571;48.110;-1.706;2022-11-12T08:50:51;10.70;99.90
11035;DHT22;5571;48.110;-1.706;2022-11-12T08:53:17;10.70;99.90
11035;DHT22;5571;48.110;-1.706;2022-11-12T08:55:42;10.80;99.90
11035;DHT22;5571;48.110;-1.706;2022-11-12T08:58:08;10.90;99.90
11035;DHT22;5571;48.110;-1.706;2022-11-12T09:00:38;11.00;99.90
11035;DHT22;5571;48.110;-1.706;2022-11-12T09:03:05;11.00;99.90
11035;DHT22;5571;48.110;-1.706;2022-11-12T09:05:33;11.30;99.90
11035;DHT22;5571;48.110;-1.706;2022-11-12T09:08:01;11.30;99.90
11035;DHT22;5571;48.110;-1.706;2022-11-12T09:10:27;11.40;99.90
11035;DHT22;5571;48.110;-1.706;2022-11-12T09:12:53;11.50;99.90
11035;DHT22;5571;48.110;-1.706;2022-11-12T09:15:20;11.60;99.90
11035;DHT22;5571;48.110;-1.706;2022-11-12T09:17:46;11.60;99.90
11035;DHT22;5571;48.110;-1.706;2022-11-12T09:20:11;11.70;99.90
11035;DHT22;5571;48.110;-1.706;2022-11-12T09:22:37;11.80;99.90
11035;DHT22;5571;48.110;-1.706;2022-11-12T09:25:03;11.90;99.90
11035;DHT22;5571;48.110;-1.706;2022-11-12T09:27:29;11.90;99.90
11035;DHT22;5571;48.110;-1.706;2022-11-12T09:29:55;12.00;99.90
11035;DHT22;5571;48.110;-1.706;2022-11-12T09:32:20;12.00;99.90
11035;DHT22;5571;48.110;-1.706;2022-11-12T09:34:46;11.90;99.90
11035;DHT22;5571;48.110;-1.706;2022-11-12T09:37:12;11.90;99.90
11035;DHT22;5571;48.110;-1.706;2022-11-12T09:39:37;11.90;99.90
11035;DHT22;5571;48.110;-1.706;2022-11-12T09:42:08;12.00;99.90
11035;DHT22;5571;48.110;-1.706;2022-11-12T09:44:39;12.10;99.90
11035;DHT22;5571;48.110;-1.706;2022-11-12T09:47:15;12.20;99.90
11035;DHT22;5571;48.110;-1.706;2022-11-12T09:52:36;12.50;99.90
11035;DHT22;5571;48.110;-1.706;2022-11-12T09:55:17;12.70;99.90
11035;DHT22;5571;48.110;-1.706;2022-11-12T09:57:45;12.80;99.90
11035;DHT22;5571;48.110;-1.706;2022-11-12T10:00:20;12.90;99.90
11035;DHT22;5571;48.110;-1.706;2022-11-12T10:03:33;13.20;99.90
11035;DHT22;5571;48.110;-1.706;2022-11-12T10:06:20;13.40;99.90
11035;DHT22;5571;48.110;-1.706;2022-11-12T10:17:34;14.00;99.90
11035;DHT22;5571;48.110;-1.706;2022-11-12T10:22:57;14.40;99.90
11035;DHT22;5571;48.110;-1.706;2022-11-12T10:25:27;14.60;99.90
11035;DHT22;5571;48.110;-1.706;2022-11-12T10:27:54;14.80;99.90
11035;DHT22;5571;48.110;-1.706;2022-11-12T10:30:23;14.90;99.90
11035;DHT22;5571;48.110;-1.706;2022-11-12T10:32:50;15.10;99.90
11035;DHT22;5571;48.110;-1.706;2022-11-12T10:35:19;15.40;99.90
11035;DHT22;5571;48.110;-1.706;2022-11-12T10:37:50;15.60;99.90
11035;DHT22;5571;48.110;-1.706;2022-11-12T10:40:34;15.70;99.90
11035;DHT22;5571;48.110;-1.706;2022-11-12T10:45:29;15.90;99.90
11035;DHT22;5571;48.110;-1.706;2022-11-12T10:47:55;16.00;99.90
11035;DHT22;5571;48.110;-1.706;2022-11-12T10:50:34;16.10;99.90
11035;DHT22;5571;48.110;-1.706;2022-11-12T10:53:05;16.10;99.90
11035;DHT22;5571;48.110;-1.706;2022-11-12T10:55:36;16.00;99.90
11035;DHT22;5571;48.110;-1.706;2022-11-12T11:00:28;16.60;99.90
11035;DHT22;5571;48.110;-1.706;2022-11-12T11:02:54;16.50;99.90
11035;DHT22;5571;48.110;-1.706;2022-11-12T11:05:31;16.60;99.90
11035;DHT22;5571;48.110;-1.706;2022-11-12T11:07:57;16.70;99.90
11035;DHT22;5571;48.110;-1.706;2022-11-12T11:10:28;16.80;99.90
11035;DHT22;5571;48.110;-1.706;2022-11-12T11:13:26;17.00;99.90
11035;DHT22;5571;48.110;-1.706;2022-11-12T11:18:24;17.30;99.90
11035;DHT22;5571;48.110;-1.706;2022-11-12T11:21:15;17.40;99.90
11035;DHT22;5571;48.110;-1.706;2022-11-12T11:37:50;17.70;99.90
11035;DHT22;5571;48.110;-1.706;2022-11-12T11:40:33;17.50;99.90
11035;DHT22;5571;48.110;-1.706;2022-11-12T11:45:55;17.70;99.90
11035;DHT22;5571;48.110;-1.706;2022-11-12T11:51:34;17.90;99.90
11035;DHT22;5571;48.110;-1.706;2022-11-12T11:57:09;18.10;99.90
11035;DHT22;5571;48.110;-1.706;2022-11-12T12:05:24;18.20;99.90
11035;DHT22;5571;48.110;-1.706;2022-11-12T12:08:01;18.30;99.90
11035;DHT22;5571;48.110;-1.706;2022-11-12T12:10:56;18.30;99.90
11035;DHT22;5571;48.110;-1.706;2022-11-12T12:16:49;18.00;99.90
11035;DHT22;5571;48.110;-1.706;2022-11-12T12:21:21;18.10;99.90
11035;DHT22;5571;48.110;-1.706;2022-11-12T12:26:51;18.20;99.90
11035;DHT22;5571;48.110;-1.706;2022-11-12T12:29:32;18.30;99.90
11035;DHT22;5571;48.110;-1.706;2022-11-12T12:32:09;18.40;99.90
11035;DHT22;5571;48.110;-1.706;2022-11-12T12:34:40;18.40;99.90
11035;DHT22;5571;48.110;-1.706;2022-11-12T12:37:36;18.50;99.90
11035;DHT22;5571;48.110;-1.706;2022-11-12T12:40:18;18.60;99.90
11035;DHT22;5571;48.110;-1.706;2022-11-12T12:45:44;18.80;99.90
11035;DHT22;5571;48.110;-1.706;2022-11-12T12:48:23;18.80;99.90
11035;DHT22;5571;48.110;-1.706;2022-11-12T12:50:50;18.80;99.90
11035;DHT22;5571;48.110;-1.706;2022-11-12T12:55:53;18.90;99.90
11035;DHT22;5571;48.110;-1.706;2022-11-12T12:58:39;19.00;99.90
11035;DHT22;5571;48.110;-1.706;2022-11-12T13:08:51;19.00;99.90
11035;DHT22;5571;48.110;-1.706;2022-11-12T13:14:51;19.20;99.90
11035;DHT22;5571;48.110;-1.706;2022-11-12T13:17:45;19.20;99.90
11035;DHT22;5571;48.110;-1.706;2022-11-12T13:20:17;19.40;99.90
11035;DHT22;5571;48.110;-1.706;2022-11-12T13:22:51;19.40;99.90
11035;DHT22;5571;48.110;-1.706;2022-11-12T13:28:02;19.50;99.90
11035;DHT22;5571;48.110;-1.706;2022-11-12T13:32:54;19.60;99.90
11035;DHT22;5571;48.110;-1.706;2022-11-12T13:40:53;19.40;99.90
11035;DHT22;5571;48.110;-1.706;2022-11-12T13:43:40;19.40;99.90
11035;DHT22;5571;48.110;-1.706;2022-11-12T13:48:44;19.20;99.90
11035;DHT22;5571;48.110;-1.706;2022-11-12T13:51:18;19.40;99.90
11035;DHT22;5571;48.110;-1.706;2022-11-12T13:53:45;19.50;99.90
11035;DHT22;5571;48.110;-1.706;2022-11-12T13:56:11;19.70;99.90
11035;DHT22;5571;48.110;-1.706;2022-11-12T13:58:37;19.90;99.90
11035;DHT22;5571;48.110;-1.706;2022-11-12T14:01:09;19.70;99.90
11035;DHT22;5571;48.110;-1.706;2022-11-12T14:03:47;19.60;99.90
11035;DHT22;5571;48.110;-1.706;2022-11-12T14:20:28;20.40;99.90
11035;DHT22;5571;48.110;-1.706;2022-11-12T14:23:07;20.20;99.90
11035;DHT22;5571;48.110;-1.706;2022-11-12T14:25:45;20.10;99.90
11035;DHT22;5571;48.110;-1.706;2022-11-12T14:28:26;20.00;99.90
11035;DHT22;5571;48.110;-1.706;2022-11-12T14:30:53;19.90;99.90
11035;DHT22;5571;48.110;-1.706;2022-11-12T14:33:21;19.90;99.90
11035;DHT22;5571;48.110;-1.706;2022-11-12T14:35:49;20.00;99.90
11035;DHT22;5571;48.110;-1.706;2022-11-12T14:40:52;20.10;99.90
11035;DHT22;5571;48.110;-1.706;2022-11-12T14:45:53;20.10;99.90
11035;DHT22;5571;48.110;-1.706;2022-11-12T14:48:19;20.10;99.90
11035;DHT22;5571;48.110;-1.706;2022-11-12T14:50:47;20.10;99.90
11035;DHT22;5571;48.110;-1.706;2022-11-12T14:53:25;20.20;99.90
11035;DHT22;5571;48.110;-1.706;2022-11-12T14:55:52;20.10;99.90
11035;DHT22;5571;48.110;-1.706;2022-11-12T14:58:21;20.30;99.90
11035;DHT22;5571;48.110;-1.706;2022-11-12T15:00:51;20.40;99.90
11035;DHT22;5571;48.110;-1.706;2022-11-12T15:03:20;20.50;99.90
11035;DHT22;5571;48.110;-1.706;2022-11-12T15:06:10;20.60;99.90
11035;DHT22;5571;48.110;-1.706;2022-11-12T15:08:38;20.70;99.90
11035;DHT22;5571;48.110;-1.706;2022-11-12T15:11:20;20.80;99.90
11035;DHT22;5571;48.110;-1.706;2022-11-12T15:13:47;20.80;99.90
11035;DHT22;5571;48.110;-1.706;2022-11-12T15:16:42;20.90;99.90
11035;DHT22;5571;48.110;-1.706;2022-11-12T15:19:17;21.00;99.90
11035;DHT22;5571;48.110;-1.706;2022-11-12T15:21:58;21.00;99.90
11035;DHT22;5571;48.110;-1.706;2022-11-12T15:24:31;21.10;99.90
11035;DHT22;5571;48.110;-1.706;2022-11-12T15:29:43;21.20;99.90
11035;DHT22;5571;48.110;-1.706;2022-11-12T15:37:18;19.80;99.90
11035;DHT22;5571;48.110;-1.706;2022-11-12T15:39:51;19.30;99.90
11035;DHT22;5571;48.110;-1.706;2022-11-12T15:42:30;18.80;99.90
11035;DHT22;5571;48.110;-1.706;2022-11-12T15:45:03;18.50;99.90
11035;DHT22;5571;48.110;-1.706;2022-11-12T15:47:33;18.20;99.90
11035;DHT22;5571;48.110;-1.706;2022-11-12T15:49:59;18.10;99.90
11035;DHT22;5571;48.110;-1.706;2022-11-12T15:52:25;17.80;99.90
11035;DHT22;5571;48.110;-1.706;2022-11-12T15:54:51;17.70;99.90
11035;DHT22;5571;48.110;-1.706;2022-11-12T15:57:28;17.60;99.90
11035;DHT22;5571;48.110;-1.706;2022-11-12T16:00:23;17.50;99.90
11035;DHT22;5571;48.110;-1.706;2022-11-12T16:03:14;17.40;99.90
11035;DHT22;5571;48.110;-1.706;2022-11-12T16:05:41;17.30;99.90
11035;DHT22;5571;48.110;-1.706;2022-11-12T16:08:07;17.20;99.90
11035;DHT22;5571;48.110;-1.706;2022-11-12T16:10:33;17.00;99.90
11035;DHT22;5571;48.110;-1.706;2022-11-12T16:12:59;17.00;99.90
11035;DHT22;5571;48.110;-1.706;2022-11-12T16:15:26;16.90;99.90
11035;DHT22;5571;48.110;-1.706;2022-11-12T16:17:53;16.80;99.90
11035;DHT22;5571;48.110;-1.706;2022-11-12T16:20:23;16.70;99.90
11035;DHT22;5571;48.110;-1.706;2022-11-12T16:22:51;16.60;99.90
11035;DHT22;5571;48.110;-1.706;2022-11-12T16:25:19;16.50;99.90
11035;DHT22;5571;48.110;-1.706;2022-11-12T16:27:46;16.50;99.90
11035;DHT22;5571;48.110;-1.706;2022-11-12T16:30:20;16.40;99.90
11035;DHT22;5571;48.110;-1.706;2022-11-12T16:32:46;16.40;99.90
11035;DHT22;5571;48.110;-1.706;2022-11-12T16:35:13;16.40;99.90
11035;DHT22;5571;48.110;-1.706;2022-11-12T16:37:40;16.30;99.90
11035;DHT22;5571;48.110;-1.706;2022-11-12T16:40:13;16.30;99.90
11035;DHT22;5571;48.110;-1.706;2022-11-12T16:42:39;16.30;99.90
11035;DHT22;5571;48.110;-1.706;2022-11-12T16:45:11;16.20;99.90
11035;DHT22;5571;48.110;-1.706;2022-11-12T16:47:43;16.20;99.90
11035;DHT22;5571;48.110;-1.706;2022-11-12T16:50:11;16.10;99.90
11035;DHT22;5571;48.110;-1.706;2022-11-12T16:52:37;16.10;99.90
11035;DHT22;5571;48.110;-1.706;2022-11-12T16:55:03;16.10;99.90
11035;DHT22;5571;48.110;-1.706;2022-11-12T16:57:28;16.00;99.90
11035;DHT22;5571;48.110;-1.706;2022-11-12T16:59:54;16.00;99.90
11035;DHT22;5571;48.110;-1.706;2022-11-12T17:02:20;16.00;99.90
11035;DHT22;5571;48.110;-1.706;2022-11-12T17:04:46;15.90;99.90
11035;DHT22;5571;48.110;-1.706;2022-11-12T17:07:11;15.90;99.90
11035;DHT22;5571;48.110;-1.706;2022-11-12T17:09:37;15.90;99.90
11035;DHT22;5571;48.110;-1.706;2022-11-12T17:12:03;15.90;99.90
11035;DHT22;5571;48.110;-1.706;2022-11-12T17:14:29;15.80;99.90
11035;DHT22;5571;48.110;-1.706;2022-11-12T17:16:55;15.80;99.90
11035;DHT22;5571;48.110;-1.706;2022-11-12T17:19:20;15.80;99.90
11035;DHT22;5571;48.110;-1.706;2022-11-12T17:21:46;15.70;99.90
11035;DHT22;5571;48.110;-1.706;2022-11-12T17:24:11;15.70;99.90
11035;DHT22;5571;48.110;-1.706;2022-11-12T17:26:37;15.60;99.90
11035;DHT22;5571;48.110;-1.706;2022-11-12T17:29:03;15.60;99.90
11035;DHT22;5571;48.110;-1.706;2022-11-12T17:31:29;15.60;99.90
11035;DHT22;5571;48.110;-1.706;2022-11-12T17:33:55;15.60;99.90
11035;DHT22;5571;48.110;-1.706;2022-11-12T17:36:23;15.50;99.90
11035;DHT22;5571;48.110;-1.706;2022-11-12T17:38:53;15.50;99.90
11035;DHT22;5571;48.110;-1.706;2022-11-12T17:41:19;15.40;99.90
11035;DHT22;5571;48.110;-1.706;2022-11-12T17:43:45;15.40;99.90
11035;DHT22;5571;48.110;-1.706;2022-11-12T17:46:12;15.40;99.90
11035;DHT22;5571;48.110;-1.706;2022-11-12T17:48:39;15.40;99.90
11035;DHT22;5571;48.110;-1.706;2022-11-12T17:51:13;15.40;99.90